createdAt,value
2022-11-27T00:01:55.976Z,73.04
2022-11-27T00:04:58.258Z,73.17
2022-11-27T00:08:00.567Z,74.14
2022-11-27T00:11:12.060Z,73.62
2022-11-27T00:14:16.228Z,73.44
2022-11-27T00:17:18.520Z,73.59
2022-11-27T00:20:20.820Z,73.05
2022-11-27T00:23:23.147Z,72.98
2022-11-27T00:26:26.049Z,73.47
2022-11-27T00:29:30.904Z,72.76
2022-11-27T00:32:33.183Z,74.10
2022-11-27T00:35:35.437Z,73.56
2022-11-27T00:38:39.309Z,73.87
2022-11-27T00:41:41.695Z,74.06
2022-11-27T00:44:43.949Z,74.20
2022-11-27T00:47:46.260Z,74.16
2022-11-27T00:50:48.552Z,74.36
2022-11-27T00:53:51.598Z,74.01
2022-11-27T00:56:53.919Z,73.88
2022-11-27T00:59:56.234Z,73.62
2022-11-27T01:02:58.633Z,74.11
2022-11-27T01:06:05.612Z,74.18
2022-11-27T01:09:08.242Z,74.18
2022-11-27T01:12:10.579Z,73.94
2022-11-27T01:15:12.959Z,74.39
2022-11-27T01:18:15.271Z,73.71
2022-11-27T01:21:19.678Z,74.13
2022-11-27T01:24:21.995Z,73.42
2022-11-27T01:27:24.301Z,74.37
2022-11-27T01:30:26.724Z,74.85
2022-11-27T01:33:29.031Z,74.46
2022-11-27T01:36:32.239Z,74.73
2022-11-27T01:39:34.490Z,75.35
2022-11-27T01:42:36.771Z,74.93
2022-11-27T01:45:39.091Z,74.69
2022-11-27T01:48:41.375Z,75.25
2022-11-27T01:51:51.835Z,74.94
2022-11-27T01:54:58.483Z,74.60
2022-11-27T01:58:11.578Z,75.33
2022-11-27T02:01:14.276Z,74.74
2022-11-27T02:04:18.041Z,75.63
2022-11-27T02:07:20.588Z,75.33
2022-11-27T02:10:48.584Z,75.30
2022-11-27T02:14:03.023Z,75.49
2022-11-27T02:17:14.408Z,75.13
2022-11-27T02:20:19.804Z,75.30
2022-11-27T02:23:46.601Z,74.61
2022-11-27T02:27:10.166Z,75.07
2022-11-27T02:30:13.067Z,74.38
2022-11-27T02:33:18.797Z,74.63
2022-11-27T02:36:27.924Z,75.07
2022-11-27T02:39:40.344Z,74.86
2022-11-27T02:42:47.668Z,74.58
2022-11-27T02:45:51.818Z,74.56
2022-11-27T02:48:58.289Z,74.24
2022-11-27T02:52:02.370Z,74.01
2022-11-27T02:55:07.636Z,74.09
2022-11-27T02:58:14.384Z,73.92
2022-11-27T03:01:18.802Z,74.65
2022-11-27T03:04:25.256Z,74.50
2022-11-27T03:07:42.750Z,74.75
2022-11-27T03:10:50.399Z,74.75
2022-11-27T03:13:55.268Z,74.79
2022-11-27T03:17:23.401Z,74.25
2022-11-27T03:20:37.536Z,74.20
2022-11-27T03:23:39.880Z,74.37
2022-11-27T03:26:42.202Z,74.00
2022-11-27T03:29:55.077Z,74.10
2022-11-27T03:32:57.770Z,74.09
2022-11-27T03:36:00.197Z,74.54
2022-11-27T03:39:03.725Z,74.43
2022-11-27T03:42:17.376Z,74.29
2022-11-27T03:45:48.469Z,73.87
2022-11-27T03:49:20.207Z,74.25
2022-11-27T03:52:34.552Z,74.67
2022-11-27T03:55:50.132Z,74.54
2022-11-27T03:58:55.309Z,74.69
2022-11-27T04:01:57.692Z,74.43
2022-11-27T04:05:00.083Z,74.22
2022-11-27T04:08:02.370Z,74.00
2022-11-27T04:11:04.838Z,74.93
2022-11-27T04:14:07.371Z,74.91
2022-11-27T04:17:09.686Z,74.88
2022-11-27T04:20:15.560Z,75.19
2022-11-27T04:23:17.917Z,75.14
2022-11-27T04:26:20.274Z,74.79
2022-11-27T04:29:22.580Z,74.65
2022-11-27T04:32:24.804Z,74.85
2022-11-27T04:35:27.121Z,75.50
2022-11-27T04:38:29.352Z,74.78
2022-11-27T04:41:31.641Z,75.07
2022-11-27T04:44:33.985Z,75.13
2022-11-27T04:47:36.251Z,75.24
2022-11-27T04:50:39.285Z,74.48
2022-11-27T04:53:42.297Z,74.35
2022-11-27T04:56:44.585Z,74.90
2022-11-27T04:59:46.915Z,74.53
2022-11-27T05:02:49.356Z,74.90
2022-11-27T05:05:58.839Z,74.56
2022-11-27T05:09:02.302Z,74.83
2022-11-27T05:12:05.014Z,74.88
2022-11-27T05:15:08.177Z,74.41
2022-11-27T05:18:10.520Z,74.75
2022-11-27T05:21:12.849Z,74.88
2022-11-27T05:24:16.071Z,75.03
2022-11-27T05:27:18.347Z,74.48
2022-11-27T05:30:20.636Z,74.57
2022-11-27T05:33:23.009Z,74.88
2022-11-27T05:36:25.797Z,74.19
2022-11-27T05:39:28.079Z,74.41
2022-11-27T05:42:30.440Z,74.60
2022-11-27T05:45:32.932Z,74.13
2022-11-27T05:48:36.157Z,74.55
2022-11-27T05:51:38.658Z,74.13
2022-11-27T05:54:41.051Z,73.72
2022-11-27T05:57:43.477Z,73.88
2022-11-27T06:00:46.406Z,73.86
2022-11-27T06:03:48.885Z,73.56
2022-11-27T06:06:51.318Z,74.23
2022-11-27T06:09:53.565Z,74.00
2022-11-27T06:12:55.955Z,74.10
2022-11-27T06:15:58.288Z,74.20
2022-11-27T06:19:00.626Z,74.47
2022-11-27T06:22:02.912Z,73.91
2022-11-27T06:25:05.656Z,73.78
2022-11-27T06:28:08.146Z,74.14
2022-11-27T06:31:18.059Z,74.49
2022-11-27T06:34:20.644Z,74.11
2022-11-27T06:37:23.350Z,74.22
2022-11-27T06:40:25.635Z,74.28
2022-11-27T06:43:27.915Z,74.21
2022-11-27T06:46:30.564Z,73.47
2022-11-27T06:49:32.853Z,73.44
2022-11-27T06:52:40.179Z,74.01
2022-11-27T06:55:43.027Z,74.63
2022-11-27T06:58:45.963Z,74.49
2022-11-27T07:01:48.904Z,74.25
2022-11-27T07:04:51.221Z,74.23
2022-11-27T07:07:53.698Z,73.73
2022-11-27T07:11:02.260Z,74.04
2022-11-27T07:14:05.716Z,73.75
2022-11-27T07:17:07.991Z,73.53
2022-11-27T07:20:10.807Z,74.23
2022-11-27T07:23:13.170Z,73.43
2022-11-27T07:26:19.942Z,73.42
2022-11-27T07:29:22.234Z,72.83
2022-11-27T07:32:24.559Z,73.44
2022-11-27T07:35:26.875Z,73.25
2022-11-27T07:38:29.360Z,73.35
2022-11-27T07:41:34.134Z,73.52
2022-11-27T07:44:36.673Z,73.44
2022-11-27T07:47:39.474Z,72.82
2022-11-27T07:50:41.895Z,72.55
2022-11-27T07:53:44.682Z,72.53
2022-11-27T07:56:46.974Z,73.50
2022-11-27T07:59:49.362Z,73.56
2022-11-27T08:02:51.652Z,72.55
2022-11-27T08:05:54.017Z,72.40
2022-11-27T08:08:56.878Z,72.50
2022-11-27T08:11:59.253Z,72.21
2022-11-27T08:15:01.678Z,73.16
2022-11-27T08:18:04.273Z,72.83
2022-11-27T08:21:06.532Z,72.62
2022-11-27T08:24:09.333Z,72.37
2022-11-27T08:27:12.104Z,72.58
2022-11-27T08:30:15.212Z,72.28
2022-11-27T08:33:17.460Z,72.41
2022-11-27T08:36:19.908Z,72.34
2022-11-27T08:39:22.331Z,72.22
2022-11-27T08:42:24.620Z,71.78
2022-11-27T08:45:26.928Z,71.97
2022-11-27T08:48:29.275Z,72.21
2022-11-27T08:51:31.563Z,71.63
2022-11-27T08:54:33.860Z,71.12
2022-11-27T08:57:36.394Z,70.31
2022-11-27T09:00:40.958Z,71.03
2022-11-27T09:03:43.795Z,70.66
2022-11-27T09:06:46.210Z,70.74
2022-11-27T09:09:48.756Z,71.16
2022-11-27T09:12:51.204Z,70.65
2022-11-27T09:15:53.534Z,70.87
2022-11-27T09:18:56.394Z,70.83
2022-11-27T09:21:59.568Z,71.04
2022-11-27T09:25:02.032Z,71.54
2022-11-27T09:28:04.373Z,71.55
2022-11-27T09:31:09.067Z,70.79
2022-11-27T09:34:11.381Z,71.81
2022-11-27T09:37:13.820Z,72.08
2022-11-27T09:40:17.751Z,71.90
2022-11-27T09:43:28.861Z,71.88
2022-11-27T09:46:39.435Z,72.50
2022-11-27T09:49:46.230Z,71.98
2022-11-27T09:52:52.830Z,72.05
2022-11-27T09:55:56.819Z,72.33
2022-11-27T09:59:00.100Z,71.88
2022-11-27T10:02:02.637Z,71.27
2022-11-27T10:05:19.858Z,71.74
2022-11-27T10:08:22.300Z,71.94
2022-11-27T10:11:53.715Z,71.69
2022-11-27T10:15:00.019Z,72.16
2022-11-27T10:18:24.095Z,71.35
2022-11-27T10:21:52.129Z,70.63
2022-11-27T10:25:10.993Z,71.88
2022-11-27T10:28:17.708Z,72.51
2022-11-27T10:31:40.958Z,72.77
2022-11-27T10:34:48.493Z,72.65
2022-11-27T10:38:12.736Z,72.15
2022-11-27T10:41:48.944Z,71.84
2022-11-27T10:44:46.274Z,71.84
2022-11-27T10:47:48.984Z,72.64
2022-11-27T10:50:51.491Z,72.21
2022-11-27T10:53:54.782Z,72.92
2022-11-27T10:57:01.340Z,72.61
2022-11-27T11:00:06.738Z,72.19
2022-11-27T11:03:19.155Z,71.97
2022-11-27T11:06:26.332Z,71.67
2022-11-27T11:09:34.801Z,72.26
2022-11-27T11:12:37.160Z,72.59
2022-11-27T11:15:58.585Z,72.21
2022-11-27T11:19:02.678Z,71.87
2022-11-27T11:22:14.745Z,72.41
2022-11-27T11:25:19.152Z,72.87
2022-11-27T11:28:22.126Z,72.83
2022-11-27T11:31:40.940Z,72.80
2022-11-27T11:34:45.878Z,73.47
2022-11-27T11:37:48.318Z,73.71
2022-11-27T11:41:04.755Z,73.33
2022-11-27T11:44:22.959Z,73.33
2022-11-27T11:47:25.408Z,72.82
2022-11-27T11:50:29.759Z,72.94
2022-11-27T11:53:45.619Z,72.67
2022-11-27T11:56:52.506Z,72.41
2022-11-27T12:00:14.919Z,72.70
2022-11-27T12:03:32.498Z,73.09
2022-11-27T12:06:54.297Z,72.91
2022-11-27T12:10:11.274Z,72.51
2022-11-27T12:13:33.344Z,72.25
2022-11-27T12:16:49.843Z,72.04
2022-11-27T12:20:10.876Z,72.96
2022-11-27T12:23:33.331Z,72.52
2022-11-27T12:27:13.173Z,72.27
2022-11-27T12:30:18.348Z,71.82
2022-11-27T12:33:44.269Z,72.21
2022-11-27T12:37:24.925Z,71.80
2022-11-27T12:41:03.565Z,71.82
2022-11-27T12:44:18.215Z,71.75
2022-11-27T12:47:29.126Z,71.80
2022-11-27T12:50:40.490Z,71.65
2022-11-27T12:53:50.816Z,70.81
2022-11-27T12:57:03.152Z,71.29
2022-11-27T13:00:14.628Z,72.13
2022-11-27T13:03:35.273Z,72.33
2022-11-27T13:07:05.494Z,71.96
2022-11-27T13:10:24.623Z,72.08
2022-11-27T13:13:32.259Z,72.08
2022-11-27T13:16:41.406Z,71.64
2022-11-27T13:19:44.556Z,72.02
2022-11-27T13:22:47.803Z,72.20
2022-11-27T13:25:53.219Z,71.57
2022-11-27T13:29:06.309Z,71.47
2022-11-27T13:32:09.399Z,72.04
2022-11-27T13:35:40.162Z,71.84
2022-11-27T13:38:42.804Z,71.96
2022-11-27T13:41:45.167Z,71.84
2022-11-27T13:44:56.944Z,71.43
2022-11-27T13:48:00.320Z,71.40
2022-11-27T13:51:03.432Z,71.51
2022-11-27T13:54:11.495Z,71.62
2022-11-27T13:57:18.320Z,71.48
2022-11-27T14:00:51.742Z,71.94
2022-11-27T14:03:54.228Z,71.83
2022-11-27T14:07:09.736Z,71.91
2022-11-27T14:10:15.940Z,71.13
2022-11-27T14:13:19.943Z,71.69
2022-11-27T14:16:31.909Z,71.52
2022-11-27T14:19:39.614Z,71.83
2022-11-27T14:23:10.583Z,71.36
2022-11-27T14:26:15.784Z,71.49
2022-11-27T14:29:23.139Z,71.62
2022-11-27T14:32:35.415Z,71.36
2022-11-27T14:35:37.840Z,71.75
2022-11-27T14:38:40.148Z,72.19
2022-11-27T14:41:42.377Z,72.50
2022-11-27T14:44:44.829Z,71.57
2022-11-27T14:47:53.093Z,72.04
2022-11-27T14:50:56.081Z,72.14
2022-11-27T14:54:19.979Z,71.77
2022-11-27T14:57:26.787Z,71.71
2022-11-27T15:00:29.346Z,71.76
2022-11-27T15:03:35.274Z,71.50
2022-11-27T15:06:44.686Z,71.92
2022-11-27T15:09:49.879Z,71.18
2022-11-27T15:12:52.358Z,71.30
2022-11-27T15:15:58.612Z,71.62
2022-11-27T15:19:04.811Z,71.13
2022-11-27T15:22:07.105Z,70.86
2022-11-27T15:25:41.402Z,71.20
2022-11-27T15:28:49.886Z,71.35
2022-11-27T15:31:52.815Z,71.44
2022-11-27T15:34:55.223Z,70.96
2022-11-27T15:38:08.219Z,71.79
2022-11-27T15:41:28.088Z,71.42
2022-11-27T15:44:32.216Z,71.53
2022-11-27T15:47:36.846Z,71.27
2022-11-27T15:50:39.118Z,71.31
2022-11-27T15:53:41.388Z,71.74
2022-11-27T15:56:44.008Z,71.27
2022-11-27T15:59:46.255Z,71.65
2022-11-27T16:02:48.667Z,72.25
2022-11-27T16:05:51.035Z,71.56
2022-11-27T16:08:57.681Z,71.77
2022-11-27T16:12:00.080Z,71.74
2022-11-27T16:15:02.787Z,72.08
2022-11-27T16:18:07.187Z,71.79
2022-11-27T16:21:11.364Z,71.80
2022-11-27T16:24:14.789Z,72.22
2022-11-27T16:27:17.078Z,72.34
2022-11-27T16:30:20.144Z,72.11
2022-11-27T16:33:30.315Z,72.38
2022-11-27T16:36:32.903Z,72.73
2022-11-27T16:39:35.484Z,73.39
2022-11-27T16:42:38.553Z,73.17
2022-11-27T16:45:40.973Z,73.55
2022-11-27T16:48:48.636Z,74.12
2022-11-27T16:51:51.168Z,74.21
2022-11-27T16:54:55.321Z,74.30
2022-11-27T16:57:58.813Z,74.19
2022-11-27T17:01:01.416Z,74.19
2022-11-27T17:04:07.208Z,74.31
2022-11-27T17:07:10.258Z,73.88
2022-11-27T17:10:12.580Z,74.74
2022-11-27T17:13:14.810Z,74.91
2022-11-27T17:16:18.776Z,74.77
2022-11-27T17:19:24.075Z,74.85
2022-11-27T17:22:27.353Z,74.96
2022-11-27T17:25:30.651Z,75.21
2022-11-27T17:28:33.388Z,75.32
2022-11-27T17:31:37.185Z,74.95
2022-11-27T17:34:40.154Z,74.84
2022-11-27T17:37:43.813Z,74.81
2022-11-27T17:40:46.115Z,75.20
2022-11-27T17:43:49.029Z,74.88
2022-11-27T17:46:51.396Z,75.20
2022-11-27T17:49:54.382Z,75.03
2022-11-27T17:52:58.271Z,75.06
2022-11-27T17:56:09.101Z,75.65
2022-11-27T17:59:11.440Z,76.55
2022-11-27T18:02:14.967Z,75.75
2022-11-27T18:05:17.719Z,75.34
2022-11-27T18:08:20.307Z,75.83
2022-11-27T18:11:26.028Z,75.61
2022-11-27T18:14:29.369Z,75.49
2022-11-27T18:17:32.741Z,75.89
2022-11-27T18:20:36.074Z,75.96
2022-11-27T18:23:54.055Z,75.83
2022-11-27T18:27:09.903Z,75.23
2022-11-27T18:30:12.944Z,75.23
2022-11-27T18:33:15.241Z,75.38
2022-11-27T18:36:18.022Z,74.11
2022-11-27T18:39:20.313Z,74.24
2022-11-27T18:42:22.775Z,74.51
2022-11-27T18:45:33.477Z,74.53
2022-11-27T18:48:39.671Z,74.27
2022-11-27T18:51:41.918Z,74.56
2022-11-27T18:54:44.375Z,74.15
2022-11-27T18:57:47.171Z,74.02
2022-11-27T19:00:54.670Z,73.66
2022-11-27T19:03:59.864Z,73.46
2022-11-27T19:07:02.139Z,73.73
2022-11-27T19:10:04.848Z,73.18
2022-11-27T19:13:07.122Z,73.24
2022-11-27T19:16:13.260Z,72.42
2022-11-27T19:22:44.384Z,71.86
2022-11-27T19:25:46.719Z,72.33
2022-11-27T19:28:54.054Z,71.92
2022-11-27T19:31:58.963Z,72.37
2022-11-27T19:35:07.140Z,72.72
2022-11-27T19:38:09.883Z,72.58
2022-11-27T19:41:14.635Z,72.75
2022-11-27T19:44:17.741Z,72.38
2022-11-27T19:47:20.062Z,72.21
2022-11-27T19:50:22.370Z,72.26
2022-11-27T19:53:24.763Z,73.11
2022-11-27T19:56:30.449Z,72.59
2022-11-27T19:59:32.889Z,71.92
2022-11-27T20:02:36.575Z,72.34
2022-11-27T20:05:38.911Z,72.15
2022-11-27T20:08:41.892Z,72.14
2022-11-27T20:11:44.413Z,72.02
2022-11-27T20:14:46.847Z,71.72
2022-11-27T20:17:49.449Z,72.26
2022-11-27T20:20:51.887Z,73.06
2022-11-27T20:23:55.192Z,73.47
2022-11-27T20:26:58.263Z,72.94
2022-11-27T20:30:00.600Z,74.10
2022-11-27T20:33:07.382Z,73.71
2022-11-27T20:36:15.829Z,73.23
2022-11-27T20:39:21.617Z,73.11
2022-11-27T20:42:25.769Z,72.90
2022-11-27T20:45:28.658Z,72.25
2022-11-27T20:48:31.599Z,72.41
2022-11-27T20:51:34.283Z,71.94
2022-11-27T20:54:43.453Z,73.11
2022-11-27T20:57:45.697Z,72.73
2022-11-27T21:00:48.154Z,72.99
2022-11-27T21:03:52.735Z,72.91
2022-11-27T21:06:56.884Z,72.65
2022-11-27T21:09:59.214Z,72.68
2022-11-27T21:13:01.494Z,72.92
2022-11-27T21:16:06.683Z,72.97
2022-11-27T21:19:24.435Z,72.25
2022-11-27T21:22:28.331Z,72.39
2022-11-27T21:25:30.551Z,72.45
2022-11-27T21:28:34.095Z,72.13
2022-11-27T21:31:38.007Z,72.55
2022-11-27T21:34:41.372Z,72.32
2022-11-27T21:37:47.884Z,72.63
2022-11-27T21:40:51.425Z,73.01
2022-11-27T21:43:56.806Z,72.97
2022-11-27T21:47:00.167Z,73.46
2022-11-27T21:50:04.886Z,73.62
2022-11-27T21:53:08.103Z,73.75
2022-11-27T21:56:12.934Z,74.23
2022-11-27T21:59:15.416Z,75.10
2022-11-27T22:02:18.055Z,75.60
2022-11-27T22:05:20.481Z,75.70
2022-11-27T22:08:22.811Z,75.62
2022-11-27T22:11:28.173Z,75.80
2022-11-27T22:14:30.942Z,75.73
2022-11-27T22:17:33.266Z,75.87
2022-11-27T22:20:36.157Z,75.70
2022-11-27T22:23:40.109Z,76.34
2022-11-27T22:26:42.529Z,76.64
2022-11-27T22:29:44.979Z,75.79
2022-11-27T22:32:47.517Z,76.49
2022-11-27T22:35:49.920Z,76.64
2022-11-27T22:38:54.948Z,76.14
2022-11-27T22:41:57.269Z,76.43
2022-11-27T22:44:59.691Z,75.98
2022-11-27T22:48:01.994Z,76.27
2022-11-27T22:51:04.673Z,76.09
2022-11-27T22:54:10.357Z,76.12
2022-11-27T22:57:14.397Z,76.69
2022-11-27T23:00:16.994Z,76.56
2022-11-27T23:03:21.457Z,76.27
2022-11-27T23:06:24.267Z,76.83
2022-11-27T23:09:27.972Z,76.89
2022-11-27T23:12:30.597Z,76.33
2022-11-27T23:15:33.404Z,76.52
2022-11-27T23:18:36.238Z,76.67
2022-11-27T23:21:39.188Z,76.30
2022-11-27T23:24:41.644Z,76.23
2022-11-27T23:27:45.132Z,76.08
2022-11-27T23:30:50.317Z,76.45
2022-11-27T23:34:03.717Z,76.12
2022-11-27T23:37:06.036Z,76.34
2022-11-27T23:40:08.762Z,76.30
2022-11-27T23:43:11.214Z,76.08
2022-11-27T23:46:15.608Z,76.28
2022-11-27T23:49:18.842Z,76.01
2022-11-27T23:52:21.301Z,76.31
2022-11-27T23:55:24.042Z,75.75
2022-11-27T23:58:26.340Z,75.84
